Time;durP1;ratioP1;P1;durP2;ratioP2;P2;SDS_P1;SDS_P2;PMS_P1;PMS_P2;Temp;Humidity;BMP_temperature;BMP_pressure;BME280_temperature;BME280_humidity;BME280_pressure;Samples;Min_cycle;Max_cycle;Signal;HPM_P1;HPM_P2
2021/12/12 00:00:40;;;;;;;20.63;11.38;;;;;;;4.81;87.19;93450.13;4974368;28;20046;-89
2021/12/12 00:03:21;;;;;;;19.83;13.20;;;;;;;4.42;86.13;93440.56;4956614;28;20302;-89
2021/12/12 00:05:55;;;;;;;22.15;12.88;;;;;;;6.34;86.80;93749.81;4956798;28;20043;-89
2021/12/12 00:08:23;;;;;;;22.90;14.15;;;;;;;5.24;87.96;93637.56;4957004;28;20039;-90
2021/12/12 00:10:53;;;;;;;20.38;11.80;;;;;;;4.99;88.34;93607.03;4956788;28;20081;-89
2021/12/12 00:13:24;;;;;;;24.40;13.13;;;;;;;5.89;87.88;93746.63;4972368;28;20071;-88
2021/12/12 00:15:49;;;;;;;22.85;12.98;;;;;;;6.30;88.82;93830.44;4956621;28;20117;-88
2021/12/12 00:18:16;;;;;;;18.77;11.50;;;;;;;5.21;88.51;93664.41;4953061;29;20047;-89
2021/12/12 00:20:42;;;;;;;25.40;13.57;;;;;;;6.46;88.44;93832.63;4967256;28;20046;-89
2021/12/12 00:23:08;;;;;;;20.63;12.75;;;;;;;6.43;88.19;93803.44;4960771;28;20102;-89
2021/12/12 00:25:43;;;;;;;24.42;13.05;;;;;;;6.61;87.68;93820.34;4955925;28;20031;-89
2021/12/12 00:28:11;;;;;;;21.17;11.15;;;;;;;5.66;87.69;93713.13;4956816;28;20138;-90
2021/12/12 00:30:37;;;;;;;15.70;8.07;;;;;;;5.68;87.76;93734.69;4953506;29;20538;-89
2021/12/12 00:33:05;;;;;;;11.73;7.28;;;;;;;5.12;87.32;93622.16;4956736;28;20054;-88
2021/12/12 00:35:31;;;;;;;13.00;6.07;;;;;;;6.01;87.30;93799.66;4971119;28;20276;-90
2021/12/12 00:38:02;;;;;;;11.85;5.55;;;;;;;5.90;87.17;93798.19;4955961;28;20046;-89
2021/12/12 00:40:30;;;;;;;8.27;5.20;;;;;;;6.30;87.62;93857.56;4955041;28;20138;-89
2021/12/12 00:43:00;;;;;;;8.70;4.80;;;;;;;4.67;87.19;93631.19;4955059;28;20042;-89
2021/12/12 00:45:28;;;;;;;11.18;5.68;;;;;;;5.69;87.05;93779.13;4955302;28;20049;-89
2021/12/12 00:47:55;;;;;;;11.30;4.72;;;;;;;3.63;87.15;93502.00;4972839;28;20454;-89
2021/12/12 00:50:34;;;;;;;13.27;6.15;;;;;;;5.76;87.71;93816.44;4951017;29;20054;-88
2021/12/12 00:53:03;;;;;;;10.57;5.65;;;;;;;5.79;87.83;93820.38;4965080;28;20059;-88
2021/12/12 00:55:30;;;;;;;10.07;5.88;;;;;;;5.92;88.12;93826.84;4969540;28;20522;-88
2021/12/12 00:57:55;;;;;;;12.90;6.50;;;;;;;5.71;87.36;93802.53;4951294;29;20579;-90
2021/12/12 01:00:25;;;;;;;11.63;6.32;;;;;;;5.82;87.58;93827.69;4967921;28;20145;-89
2021/12/12 01:02:53;;;;;;;12.75;6.97;;;;;;;5.47;87.83;93780.66;4954185;28;20030;-89
2021/12/12 01:05:20;;;;;;;12.88;6.95;;;;;;;5.54;87.59;93800.31;4954445;28;20471;-89
2021/12/12 01:07:48;;;;;;;10.38;6.32;;;;;;;5.00;87.14;93721.59;4951146;29;20274;-89
2021/12/12 01:10:23;;;;;;;10.52;6.45;;;;;;;4.98;86.88;93702.69;4959703;28;20450;-88
2021/12/12 01:12:50;;;;;;;13.55;6.45;;;;;;;5.75;86.80;93821.97;4971997;28;20074;-89
2021/12/12 01:15:37;;;;;;;14.43;6.57;;;;;;;5.68;87.08;93840.69;4956069;28;20384;-88
2021/12/12 01:18:11;;;;;;;17.73;7.35;;;;;;;4.92;87.69;93736.09;4974080;28;20039;-88
2021/12/12 01:20:53;;;;;;;15.13;7.05;;;;;;;5.66;88.18;93873.59;4971218;28;20047;-88
2021/12/12 01:23:28;;;;;;;14.15;8.18;;;;;;;5.89;88.25;93904.50;4954108;28;20094;-87
2021/12/12 01:25:55;;;;;;;14.40;8.40;;;;;;;5.40;88.23;93844.84;4967534;28;20106;-88
2021/12/12 01:28:24;;;;;;;15.85;8.77;;;;;;;3.56;87.62;93532.97;4935056;29;20040;-88
2021/12/12 01:30:52;;;;;;;14.65;8.95;;;;;;;6.01;88.21;93904.16;4952133;28;20110;-87
2021/12/12 01:33:38;;;;;;;13.65;8.90;;;;;;;5.44;87.75;93827.47;4954063;28;20143;-88
2021/12/12 01:36:08;;;;;;;15.32;8.70;;;;;;;5.51;87.78;93855.28;4960268;28;20050;-88
2021/12/12 01:38:53;;;;;;;14.90;8.85;;;;;;;5.98;88.15;93891.53;4935282;29;20126;-88
2021/12/12 01:41:31;;;;;;;15.95;8.95;;;;;;;6.04;87.57;93877.25;4951076;28;20538;-88
2021/12/12 01:44:08;;;;;;;19.05;8.90;;;;;;;5.98;87.14;93873.91;4970313;28;20506;-88
2021/12/12 01:46:38;;;;;;;9.38;5.63;;;;;;;5.98;86.13;93907.31;4967412;28;20066;-88
2021/12/12 01:49:12;;;;;;;8.35;4.90;;;;;;;5.68;85.55;93910.94;4956502;28;20058;-88
2021/12/12 01:51:40;;;;;;;5.40;3.58;;;;;;;3.52;84.57;93559.97;4953393;28;20146;-89
2021/12/12 01:54:07;;;;;;;5.88;2.95;;;;;;;5.64;84.53;93942.25;4971279;28;20066;-88
2021/12/12 01:56:54;;;;;;;4.28;3.03;;;;;;;5.08;85.03;93823.50;4953138;28;20105;-87
2021/12/12 01:59:27;;;;;;;3.80;2.75;;;;;;;5.66;84.35;93916.44;4970904;28;20130;-89
2021/12/12 02:02:05;;;;;;;5.60;3.28;;;;;;;4.32;86.03;93789.69;4953085;28;20077;-88
2021/12/12 02:04:38;;;;;;;9.35;3.53;;;;;;;4.56;86.28;93832.66;4970329;28;20042;-88
2021/12/12 02:07:07;;;;;;;7.22;4.05;;;;;;;5.40;86.58;93950.00;4953522;28;20070;-88
2021/12/12 02:09:34;;;;;;;6.45;4.30;;;;;;;3.31;86.42;93638.66;4970464;28;20062;-88
2021/12/12 02:12:03;;;;;;;5.07;3.60;;;;;;;3.99;85.88;93754.38;4953031;28;20043;-89
2021/12/12 02:14:31;;;;;;;4.57;2.88;;;;;;;4.75;86.03;93887.22;4968294;28;20430;-88
2021/12/12 02:17:04;;;;;;;3.90;2.83;;;;;;;2.77;85.76;93612.28;4952214;28;20501;-88
2021/12/12 02:19:39;;;;;;;4.13;2.75;;;;;;;2.87;85.14;93580.88;4952443;28;20046;-88
2021/12/12 02:23:21;;;;;;;4.72;2.55;;;;;;;3.71;85.15;93753.13;4957676;28;20035;-89
2021/12/12 02:36:18;;;;;;;3.40;1.83;;;;;;;4.59;85.13;93955.53;4971381;28;20109;-90
2021/12/12 02:38:44;;;;;;;2.08;1.60;;;;;;;4.42;85.45;93952.44;4953366;28;20039;-90
2021/12/12 02:41:12;;;;;;;3.40;1.63;;;;;;;4.05;86.71;93938.78;4954384;28;20050;-91
2021/12/12 02:43:48;;;;;;;4.28;1.58;;;;;;;4.25;86.47;93992.06;4954897;28;20038;-90
2021/12/12 02:46:17;;;;;;;3.80;2.00;;;;;;;2.38;86.25;93760.34;4954944;28;20043;-91
2021/12/12 02:48:45;;;;;;;2.92;2.15;;;;;;;2.53;86.34;93721.13;4973729;28;20038;-90
2021/12/12 02:51:13;;;;;;;2.50;1.60;;;;;;;3.60;85.68;93879.22;4958212;28;20043;-90
2021/12/12 02:53:58;;;;;;;4.78;1.60;;;;;;;3.74;85.51;93867.16;4964229;28;20261;-89
2021/12/12 02:56:38;;;;;;;2.17;1.70;;;;;;;3.39;85.53;93853.00;4966256;28;20050;-89
2021/12/12 02:59:17;;;;;;;2.00;1.50;;;;;;;3.99;85.87;93971.31;4967318;28;20045;-89
2021/12/12 03:01:57;;;;;;;2.78;1.73;;;;;;;4.19;85.81;93997.56;4957723;28;20140;-88
2021/12/12 03:04:26;;;;;;;2.80;1.80;;;;;;;4.41;85.20;93997.31;4970236;28;20106;-89
2021/12/12 03:06:52;;;;;;;2.30;1.40;;;;;;;4.39;85.49;94005.44;4952714;28;20046;-89
2021/12/12 03:09:25;;;;;;;1.65;1.55;;;;;;;4.49;84.92;94002.03;4970545;28;20442;-89
2021/12/12 03:11:56;;;;;;;2.65;1.75;;;;;;;2.40;84.31;93739.97;4952295;28;20050;-89
2021/12/12 03:14:22;;;;;;;2.42;1.70;;;;;;;4.25;85.12;93986.03;4944388;29;20074;-89
2021/12/12 03:16:48;;;;;;;4.55;2.55;;;;;;;4.01;84.42;93951.66;4943798;28;20073;-89
2021/12/12 03:19:19;;;;;;;4.72;2.40;;;;;;;3.76;84.54;93965.50;4952422;28;20038;-89
2021/12/12 03:21:45;;;;;;;3.67;2.33;;;;;;;4.18;84.36;94014.38;4968811;28;20157;-88
2021/12/12 03:24:21;;;;;;;4.50;2.42;;;;;;;3.77;84.12;93946.13;4957067;28;20083;-89
2021/12/12 03:26:52;;;;;;;2.67;1.73;;;;;;;3.76;83.71;93968.13;4968618;28;20178;-89
2021/12/12 03:29:18;;;;;;;2.50;1.87;;;;;;;3.52;84.29;93963.63;4956757;28;20073;-89
2021/12/12 03:31:48;;;;;;;3.22;1.80;;;;;;;3.89;84.33;94048.94;4956438;28;20529;-89
2021/12/12 03:34:17;;;;;;;2.15;1.70;;;;;;;3.83;84.78;94065.72;4956889;28;20580;-89
2021/12/12 03:36:46;;;;;;;3.20;2.10;;;;;;;3.78;85.03;94070.16;4955918;28;20045;-89
2021/12/12 03:39:21;;;;;;;3.85;1.50;;;;;;;1.49;84.74;93733.28;4955950;28;20042;-89
2021/12/12 03:41:46;;;;;;;5.70;3.33;;;;;;;2.83;84.81;93924.63;4956291;28;20123;-89
2021/12/12 03:44:16;;;;;;;3.15;2.05;;;;;;;2.71;84.83;93917.00;4973790;28;20047;-88
2021/12/12 03:46:44;;;;;;;3.03;1.70;;;;;;;2.73;84.36;93941.09;4973798;28;20047;-88
2021/12/12 03:49:10;;;;;;;3.60;2.28;;;;;;;2.76;84.85;93950.25;4956837;28;20499;-89
2021/12/12 03:51:38;;;;;;;3.78;1.88;;;;;;;1.13;85.07;93700.94;4974221;28;20031;-89
2021/12/12 03:54:04;;;;;;;3.28;2.05;;;;;;;3.79;85.27;94090.88;4940941;29;20043;-88
2021/12/12 03:56:31;;;;;;;5.22;2.03;;;;;;;3.34;84.72;94065.28;4952492;28;20129;-89
2021/12/12 03:58:59;;;;;;;2.40;1.85;;;;;;;1.74;84.18;93765.84;4973575;28;20097;-89
2021/12/12 04:01:37;;;;;;;5.38;1.88;;;;;;;3.35;84.49;94024.94;4954507;28;20479;-89
2021/12/12 04:04:18;;;;;;;4.20;2.38;;;;;;;0.87;84.80;93682.69;4941132;28;20047;-89
2021/12/12 04:06:45;;;;;;;6.82;2.88;;;;;;;0.34;84.59;93614.72;4956840;28;20043;-89
2021/12/12 04:09:13;;;;;;;3.47;2.22;;;;;;;1.07;84.25;93681.00;4974041;28;20045;-89
2021/12/12 04:11:47;;;;;;;6.30;2.90;;;;;;;2.65;84.62;93907.56;4956281;28;20272;-89
2021/12/12 04:14:13;;;;;;;4.10;2.85;;;;;;;-0.82;83.15;93374.81;4952001;28;20066;-89
2021/12/12 04:16:42;;;;;;;3.17;2.40;;;;;;;1.93;83.57;93804.34;4956309;28;20046;-90
2021/12/12 04:19:10;;;;;;;3.53;2.47;;;;;;;3.98;83.49;94148.91;4955572;28;20069;-89
2021/12/12 04:21:41;;;;;;;4.05;2.60;;;;;;;3.96;83.56;94151.00;4956588;28;20051;-90
2021/12/12 04:24:08;;;;;;;3.20;2.30;;;;;;;3.64;83.60;94129.38;4956218;28;20050;-89
2021/12/12 04:26:42;;;;;;;4.35;2.20;;;;;;;3.94;83.06;94154.94;4973490;28;20062;-89
2021/12/12 04:29:21;;;;;;;2.33;1.80;;;;;;;4.06;83.44;94165.97;4954250;28;20085;-89
2021/12/12 04:31:51;;;;;;;2.55;1.95;;;;;;;1.91;83.32;93863.16;4972954;28;20403;-89
2021/12/12 04:34:28;;;;;;;14.55;5.10;;;;;;;3.69;82.52;94143.28;4955066;28;20242;-90
2021/12/12 04:36:56;;;;;;;5.72;2.17;;;;;;;2.66;82.98;94040.81;4973369;28;20051;-90
2021/12/12 04:39:25;;;;;;;2.63;1.65;;;;;;;-0.01;82.27;93633.44;4954354;28;20051;-89
2021/12/12 04:41:57;;;;;;;3.42;1.63;;;;;;;3.40;84.02;94134.22;4973028;28;20039;-90
2021/12/12 04:44:24;;;;;;;;;;;;;;;3.72;83.74;94197.84;4973249;28;20050;-90
2021/12/12 04:49:56;;;;;;;1.55;1.17;;;;;;;3.39;83.05;94146.53;4974226;28;20062;-89
2021/12/12 04:52:48;;;;;;;4.63;1.60;;;;;;;3.77;82.50;94200.50;4965657;28;20478;-90
2021/12/12 04:55:38;;;;;;;2.83;1.42;;;;;;;3.08;82.49;94136.91;4946327;29;20071;-90
2021/12/12 04:58:13;;;;;;;6.13;3.20;;;;;;;2.63;82.42;94114.59;4954920;28;20498;-90
2021/12/12 05:00:56;;;;;;;2.70;1.80;;;;;;;3.15;81.60;94196.94;4971413;28;20433;-90
2021/12/12 05:03:49;;;;;;;1.92;1.40;;;;;;;3.19;82.16;94156.91;4952714;28;20133;-90
2021/12/12 05:06:32;;;;;;;3.30;1.63;;;;;;;3.06;82.44;94150.25;4935625;29;20051;-89
2021/12/12 05:09:16;;;;;;;1.60;1.23;;;;;;;2.80;81.43;94103.97;4945004;28;20149;-90
2021/12/12 05:12:08;;;;;;;2.33;1.20;;;;;;;3.49;81.01;94259.31;4971956;28;20418;-89
2021/12/12 05:14:38;;;;;;;2.03;1.57;;;;;;;3.05;80.54;94174.88;4971671;28;20481;-89
2021/12/12 05:17:24;;;;;;;1.90;1.40;;;;;;;3.39;81.39;94255.81;4954433;28;20046;-89
2021/12/12 05:20:06;;;;;;;2.40;1.40;;;;;;;1.44;80.66;93944.88;4931749;28;20042;-89
2021/12/12 05:22:36;;;;;;;1.77;1.20;;;;;;;3.37;79.34;94252.66;4965520;28;20043;-88
2021/12/12 05:25:09;;;;;;;2.08;1.17;;;;;;;3.56;79.08;94271.41;4962074;28;20612;-88
2021/12/12 05:27:38;;;;;;;2.58;1.30;;;;;;;3.25;78.77;94296.59;4972204;28;20077;-89
2021/12/12 05:30:06;;;;;;;3.45;1.20;;;;;;;3.36;80.05;94290.38;4951165;29;20354;-89
2021/12/12 05:32:34;;;;;;;1.73;1.20;;;;;;;1.68;79.23;94067.41;4970182;28;20055;-90
2021/12/12 05:35:03;;;;;;;2.50;1.13;;;;;;;2.19;79.68;94139.31;4971591;28;20146;-88
2021/12/12 05:37:30;;;;;;;3.17;1.50;;;;;;;2.74;81.27;94214.16;4972626;28;20143;-88
2021/12/12 05:40:02;;;;;;;1.88;1.20;;;;;;;0.80;80.70;93930.03;4955079;28;20054;-89
2021/12/12 05:42:27;;;;;;;;;;;;;;;3.30;80.99;94291.38;4954907;28;20118;-88
2021/12/12 05:44:54;;;;;;;2.17;1.35;;;;;;;3.04;79.41;94287.78;4967641;28;19919;-89
2021/12/12 05:47:23;;;;;;;2.00;1.10;;;;;;;3.09;78.85;94308.75;4934948;29;20047;-89
2021/12/12 05:49:49;;;;;;;2.50;1.13;;;;;;;3.03;79.29;94338.56;4961068;28;20474;-88
2021/12/12 05:52:20;;;;;;;3.47;1.50;;;;;;;2.66;78.70;94276.41;4971265;28;20062;-88
2021/12/12 05:54:53;;;;;;;1.70;1.00;;;;;;;0.64;78.87;93957.78;4971271;28;20043;-88
2021/12/12 05:57:24;;;;;;;1.98;1.23;;;;;;;2.65;79.09;94285.28;4953981;28;20388;-88
2021/12/12 05:59:53;;;;;;;3.08;1.05;;;;;;;2.88;77.92;94349.69;4955064;28;20042;-90
2021/12/12 06:02:20;;;;;;;1.38;0.85;;;;;;;1.29;78.12;94151.06;4971297;28;20057;-88
2021/12/12 06:04:45;;;;;;;1.30;0.88;;;;;;;2.05;78.04;94266.25;4956032;28;20069;-88
2021/12/12 06:07:16;;;;;;;1.50;1.00;;;;;;;1.72;78.86;94180.88;4973344;28;20530;-88
2021/12/12 06:09:43;;;;;;;1.40;1.10;;;;;;;0.77;77.84;94048.75;4955044;28;20463;-88
2021/12/12 06:12:12;;;;;;;1.75;1.20;;;;;;;2.08;80.20;94261.31;4972259;28;20500;-88
2021/12/12 06:14:40;;;;;;;3.08;1.67;;;;;;;2.02;79.45;94217.84;4966823;28;20047;-88
2021/12/12 06:17:14;;;;;;;1.73;1.10;;;;;;;2.88;80.66;94357.53;4951883;29;20138;-89
2021/12/12 06:19:41;;;;;;;2.97;1.27;;;;;;;2.70;78.24;94366.50;4954859;29;20043;-89
2021/12/12 06:22:09;;;;;;;2.58;1.20;;;;;;;2.59;79.68;94385.75;4963623;28;20046;-89
2021/12/12 06:24:37;;;;;;;2.40;1.48;;;;;;;2.36;79.12;94348.53;4954978;28;20062;-89
2021/12/12 06:27:09;;;;;;;1.98;1.13;;;;;;;2.40;79.67;94387.06;4970027;28;20158;-88
2021/12/12 06:29:35;;;;;;;2.10;1.17;;;;;;;-0.35;80.40;93956.81;4971596;28;20074;-89
2021/12/12 06:32:04;;;;;;;1.40;0.90;;;;;;;0.07;79.79;94006.78;4955721;28;20077;-88
2021/12/12 06:34:30;;;;;;;2.00;1.30;;;;;;;0.02;80.18;94030.94;4956873;28;20498;-88
2021/12/12 06:36:57;;;;;;;1.25;1.00;;;;;;;1.98;80.98;94329.22;4971668;28;20054;-89
2021/12/12 06:39:24;;;;;;;3.67;1.10;;;;;;;1.77;80.70;94340.38;4953971;28;20260;-89
2021/12/12 06:41:52;;;;;;;3.30;1.45;;;;;;;2.40;81.38;94413.22;4967438;28;20082;-89
2021/12/12 06:44:20;;;;;;;2.20;1.27;;;;;;;2.00;80.39;94373.41;4956676;28;20046;-89
2021/12/12 06:46:46;;;;;;;3.10;1.60;;;;;;;-0.13;81.99;94059.34;4953352;28;20034;-90
2021/12/12 06:49:17;;;;;;;4.95;1.58;;;;;;;-1.15;80.11;93931.75;4953489;28;20060;-90
2021/12/12 06:51:55;;;;;;;2.37;1.70;;;;;;;1.98;82.13;94381.50;4953419;28;20118;-89
2021/12/12 06:54:24;;;;;;;2.83;1.30;;;;;;;-0.69;80.78;93963.81;4953629;28;20043;-89
2021/12/12 06:56:53;;;;;;;2.30;1.40;;;;;;;0.77;82.69;94176.63;4952582;28;20082;-89
2021/12/12 06:59:21;;;;;;;4.32;2.22;;;;;;;-0.24;82.38;94092.25;4952798;28;20340;-89
2021/12/12 07:01:49;;;;;;;2.85;1.60;;;;;;;1.05;82.71;94301.09;4970232;28;20078;-89
2021/12/12 07:04:18;;;;;;;3.90;1.60;;;;;;;-0.91;82.32;94010.50;4952219;28;20055;-89
2021/12/12 07:06:45;;;;;;;6.07;1.70;;;;;;;-1.09;81.96;93943.81;4952650;28;20042;-89
2021/12/12 07:09:11;;;;;;;3.85;1.90;;;;;;;2.54;83.99;94455.53;4929029;28;21146;-89
2021/12/12 07:11:47;;;;;;;2.25;1.58;;;;;;;2.74;81.89;94494.31;2668835;28;10002430;-89
2021/12/12 07:14:16;;;;;;;10.68;2.00;;;;;;;0.36;81.12;94133.44;2900552;28;10001381;-89
2021/12/12 07:16:43;;;;;;;5.72;1.75;;;;;;;1.88;80.78;94395.22;4951866;28;20534;-89
2021/12/12 07:19:14;;;;;;;2.85;1.63;;;;;;;0.49;80.47;94200.97;4952862;28;20560;-89
2021/12/12 07:21:41;;;;;;;1.53;1.30;;;;;;;0.67;82.59;94220.84;4952921;28;20525;-89
2021/12/12 07:24:08;;;;;;;5.28;2.17;;;;;;;-0.95;81.85;93996.38;4952412;28;20325;-89
2021/12/12 07:26:36;;;;;;;3.50;1.60;;;;;;;0.53;82.50;94277.75;4953853;28;20106;-88
2021/12/12 07:29:04;;;;;;;5.55;2.45;;;;;;;1.91;83.49;94470.53;4952876;28;20042;-89
2021/12/12 07:31:34;;;;;;;3.38;1.80;;;;;;;1.51;83.50;94467.25;4971374;28;20109;-89
2021/12/12 07:34:03;;;;;;;6.03;2.90;;;;;;;1.20;83.72;94445.00;4959984;28;20034;-88
2021/12/12 07:36:35;;;;;;;5.78;2.50;;;;;;;1.85;85.15;94538.69;4956296;28;20039;-89
2021/12/12 07:39:03;;;;;;;;;;;;;;;1.84;85.08;94545.72;4953899;28;20121;-89
2021/12/12 07:41:31;;;;;;;5.45;2.40;;;;;;;-0.55;84.90;94150.78;4970563;28;19922;-89
2021/12/12 07:43:59;;;;;;;3.17;2.33;;;;;;;0.47;83.29;94346.47;4970248;28;20057;-88
2021/12/12 07:46:27;;;;;;;2.80;1.77;;;;;;;-1.42;83.15;94066.69;4968914;28;20102;-89
2021/12/12 07:48:53;;;;;;;5.70;2.55;;;;;;;0.37;83.64;94312.41;4952820;28;20447;-88
2021/12/12 07:51:19;;;;;;;3.08;2.00;;;;;;;0.22;82.78;94331.13;4953016;28;20102;-87
2021/12/12 07:53:52;;;;;;;5.88;3.00;;;;;;;1.06;83.13;94439.28;4952315;28;20043;-88
2021/12/12 07:56:23;;;;;;;2.75;1.90;;;;;;;0.17;84.01;94332.81;4970247;28;20046;-88
2021/12/12 07:58:50;;;;;;;6.10;2.78;;;;;;;1.09;83.93;94485.00;4968568;28;20403;-89
2021/12/12 08:01:16;;;;;;;3.15;1.85;;;;;;;1.16;83.63;94451.72;4952774;28;20050;-89
2021/12/12 08:03:43;;;;;;;1.98;1.52;;;;;;;2.07;83.13;94593.72;4969463;28;20034;-88
2021/12/12 08:06:11;;;;;;;3.60;1.50;;;;;;;1.70;83.42;94551.47;4970488;28;20042;-88
2021/12/12 08:08:37;;;;;;;10.38;2.45;;;;;;;-0.14;83.55;94279.25;4952965;28;20522;-90
2021/12/12 08:11:05;;;;;;;5.30;2.17;;;;;;;0.31;82.32;94348.00;4952735;28;20129;-89
2021/12/12 08:13:31;;;;;;;4.32;2.05;;;;;;;2.09;84.31;94604.75;4972383;28;20106;-89
2021/12/12 08:16:01;;;;;;;9.02;4.40;;;;;;;1.54;83.59;94517.22;4977991;28;20137;-89
2021/12/12 08:18:28;;;;;;;2.97;2.00;;;;;;;2.22;83.12;94607.06;4957817;28;20055;-89
2021/12/12 08:20:55;;;;;;;4.40;2.42;;;;;;;-1.00;81.35;94131.59;4974055;28;20265;-89
2021/12/12 08:23:26;;;;;;;4.70;2.13;;;;;;;0.73;79.71;94366.03;4973925;28;20062;-89
2021/12/12 08:25:54;;;;;;;6.88;2.40;;;;;;;0.85;81.69;94426.03;4957044;28;20438;-90
2021/12/12 08:28:20;;;;;;;2.97;1.60;;;;;;;-2.25;79.21;93894.59;4955206;28;20461;-90
2021/12/12 08:30:49;;;;;;;2.72;1.70;;;;;;;1.86;79.38;94563.81;4973926;28;20047;-90
2021/12/12 08:33:14;;;;;;;4.45;1.60;;;;;;;-0.50;78.91;94217.81;4956156;28;20467;-90
2021/12/12 08:35:43;;;;;;;5.30;2.10;;;;;;;-0.40;80.13;94225.84;4973630;28;20054;-90
2021/12/12 08:38:13;;;;;;;2.65;1.90;;;;;;;-1.30;81.55;94074.50;4972751;28;20041;-89
2021/12/12 08:40:47;;;;;;;5.70;1.90;;;;;;;0.30;80.79;94290.88;4966609;28;20134;-90
2021/12/12 08:43:17;;;;;;;6.72;2.20;;;;;;;0.15;79.47;94287.97;4956997;28;20529;-90
2021/12/12 08:45:54;;;;;;;24.23;6.32;;;;;;;0.64;81.74;94341.34;4956714;28;20503;-90
2021/12/12 08:48:26;;;;;;;17.23;5.35;;;;;;;2.55;79.92;94651.63;4956575;28;20446;-88
2021/12/12 08:50:58;;;;;;;4.07;1.90;;;;;;;2.64;79.83;94665.91;4956836;28;20058;-89
2021/12/12 08:53:27;;;;;;;9.20;3.30;;;;;;;0.90;80.01;94374.72;4957220;28;20376;-90
2021/12/12 08:55:58;;;;;;;6.68;2.58;;;;;;;-1.89;78.55;93979.31;4972992;28;20482;-89
2021/12/12 08:58:30;;;;;;;8.25;3.20;;;;;;;2.04;79.41;94547.94;4957455;28;20049;-90
2021/12/12 09:00:55;;;;;;;;;;;;;;;2.85;78.40;94679.34;4957932;28;20046;-89
2021/12/12 09:03:32;;;;;;;5.88;1.80;;;;;;;1.02;78.79;94374.66;4973694;28;20335;-89
2021/12/12 09:05:58;;;;;;;3.55;1.88;;;;;;;2.96;76.36;94681.91;4973512;28;20118;-89
2021/12/12 09:08:43;;;;;;;3.45;1.90;;;;;;;2.79;78.19;94649.66;4955403;28;20506;-89
2021/12/12 09:11:18;;;;;;;8.98;2.47;;;;;;;2.32;77.62;94594.97;4972943;28;20047;-89
2021/12/12 09:13:51;;;;;;;3.72;1.65;;;;;;;1.73;76.39;94527.50;4955806;28;20049;-89
2021/12/12 09:16:24;;;;;;;4.40;2.22;;;;;;;1.94;77.79;94563.44;4937488;28;20129;-90
2021/12/12 09:18:58;;;;;;;5.63;2.10;;;;;;;-0.01;78.10;94316.31;4972488;28;20045;-89
2021/12/12 09:21:33;;;;;;;4.38;2.00;;;;;;;1.73;79.40;94622.41;4954892;28;20622;-89
2021/12/12 09:24:15;;;;;;;3.80;2.15;;;;;;;1.71;80.45;94603.53;4954745;28;20063;-89
2021/12/12 09:26:48;;;;;;;2.90;1.92;;;;;;;1.98;78.89;94658.72;4953544;28;20091;-90
2021/12/12 09:29:32;;;;;;;5.07;2.15;;;;;;;2.22;80.33;94715.13;4956112;28;20051;-90
2021/12/12 09:32:09;;;;;;;4.28;2.60;;;;;;;-0.33;80.84;94358.59;4955532;28;20077;-90
2021/12/12 09:34:43;;;;;;;4.47;2.67;;;;;;;-0.60;81.25;94309.53;4955233;28;20038;-90
2021/12/12 09:37:19;;;;;;;5.05;2.75;;;;;;;1.88;82.07;94711.59;4972109;28;20482;-90
2021/12/12 09:39:58;;;;;;;11.95;3.92;;;;;;;1.70;83.01;94687.41;4973242;28;20491;-90
2021/12/12 09:42:50;;;;;;;7.25;3.58;;;;;;;1.84;82.61;94688.75;4952361;28;20078;-90
2021/12/12 09:45:40;;;;;;;7.90;4.13;;;;;;;2.01;82.73;94734.06;4955094;28;20042;-89
2021/12/12 09:51:39;;;;;;;6.95;4.10;;;;;;;2.25;82.24;94725.16;4973094;28;20109;-90
2021/12/12 09:54:26;;;;;;;11.02;5.43;;;;;;;1.76;81.86;94668.97;4972336;28;20130;-89
2021/12/12 09:57:19;;;;;;;9.43;4.13;;;;;;;2.16;82.01;94723.91;4954913;28;20541;-90
2021/12/12 10:00:01;;;;;;;5.85;3.20;;;;;;;1.37;81.43;94635.78;4952067;28;20082;-88
2021/12/12 10:02:41;;;;;;;6.55;3.85;;;;;;;1.58;81.75;94697.91;4954427;28;20038;-91
2021/12/12 10:05:26;;;;;;;7.30;4.30;;;;;;;0.96;81.94;94606.16;4954928;28;20046;-90
2021/12/12 10:08:08;;;;;;;5.75;2.92;;;;;;;1.65;82.68;94721.28;4972087;28;20498;-89
2021/12/12 10:10:48;;;;;;;6.03;3.00;;;;;;;0.71;81.83;94585.50;4954872;28;20053;-90
2021/12/12 10:13:48;;;;;;;7.95;3.97;;;;;;;1.84;82.26;94710.44;4955278;28;20581;-90
2021/12/12 10:16:31;;;;;;;7.05;4.38;;;;;;;2.05;81.96;94719.53;4955178;28;20490;-90
2021/12/12 10:19:03;;;;;;;7.13;3.10;;;;;;;2.10;78.58;94758.84;4953577;28;20137;-90
2021/12/12 10:21:41;;;;;;;5.57;3.55;;;;;;;2.18;80.72;94745.41;4971894;28;20360;-89
2021/12/12 10:24:35;;;;;;;4.45;3.13;;;;;;;2.33;80.77;94737.06;4968361;28;20046;-90
2021/12/12 10:27:03;;;;;;;6.00;3.17;;;;;;;2.31;81.10;94731.25;4954100;28;20070;-89
2021/12/12 10:29:38;;;;;;;6.22;3.45;;;;;;;1.94;80.67;94665.41;4969875;28;20042;-89
2021/12/12 10:32:13;;;;;;;3.92;2.55;;;;;;;0.77;78.82;94566.31;4935052;29;20051;-90
2021/12/12 10:34:52;;;;;;;8.57;3.42;;;;;;;2.16;80.70;94751.91;4935256;29;20051;-89
2021/12/12 10:37:29;;;;;;;8.13;4.00;;;;;;;2.26;82.45;94766.00;4952193;28;20047;-89
2021/12/12 10:40:00;;;;;;;7.10;3.25;;;;;;;2.16;80.37;94775.44;4964270;28;20081;-89
2021/12/12 10:42:31;;;;;;;9.10;3.63;;;;;;;1.77;80.71;94722.84;4959388;28;20043;-89
2021/12/12 10:45:04;;;;;;;9.02;4.85;;;;;;;2.16;81.41;94767.59;4951646;28;20051;-90
2021/12/12 10:47:36;;;;;;;7.50;4.05;;;;;;;2.04;80.12;94774.69;4955559;28;20047;-90
2021/12/12 10:50:42;;;;;;;11.77;5.15;;;;;;;1.36;81.13;94696.88;4935060;29;20274;-90
2021/12/12 10:53:40;;;;;;;3.67;2.70;;;;;;;-1.37;79.72;94313.88;4936373;29;20134;-91
2021/12/12 10:56:38;;;;;;;6.70;4.20;;;;;;;1.69;81.06;94774.69;4949183;28;20072;-90
2021/12/12 10:59:18;;;;;;;6.13;3.83;;;;;;;0.75;81.50;94638.84;4955291;28;20138;-89
2021/12/12 11:01:46;;;;;;;10.40;4.70;;;;;;;1.48;82.09;94723.78;4954218;28;20078;-91
2021/12/12 11:04:32;;;;;;;10.07;5.18;;;;;;;0.73;81.69;94687.06;4971835;28;20038;-89
2021/12/12 11:07:06;;;;;;;12.18;6.50;;;;;;;0.29;83.18;94665.63;4954642;28;20380;-90
2021/12/12 11:09:34;;;;;;;13.98;7.32;;;;;;;1.43;84.55;94787.19;4970832;28;20142;-90
2021/12/12 11:12:43;;;;;;;15.18;7.82;;;;;;;0.44;83.94;94596.59;4970873;28;20047;-90
2021/12/12 11:15:27;;;;;;;9.25;5.55;;;;;;;1.60;82.43;94799.59;4934863;29;20118;-89
2021/12/12 11:18:14;;;;;;;9.07;5.13;;;;;;;0.82;81.68;94664.84;4934852;29;20138;-90
2021/12/12 11:20:56;;;;;;;10.38;5.88;;;;;;;1.54;81.83;94788.22;4945112;28;20121;-91
2021/12/12 11:23:29;;;;;;;13.25;6.97;;;;;;;1.08;84.25;94740.13;4956038;28;20047;-90
2021/12/12 11:26:34;;;;;;;14.90;7.70;;;;;;;1.46;84.00;94783.31;4948990;28;20077;-90
2021/12/12 11:29:07;;;;;;;12.50;6.82;;;;;;;-1.51;84.23;94392.28;4935262;29;20535;-90
2021/12/12 11:31:46;;;;;;;10.07;6.88;;;;;;;-0.97;84.83;94470.28;4950436;29;20061;-89
2021/12/12 11:34:12;;;;;;;17.05;7.90;;;;;;;-2.88;84.93;94147.63;4935131;29;20495;-90
2021/12/12 11:37:02;;;;;;;11.02;7.65;;;;;;;1.01;84.43;94791.66;4953210;29;20047;-90
2021/12/12 11:40:01;;;;;;;16.30;8.50;;;;;;;-1.29;85.92;94461.84;4940913;29;20043;-89
2021/12/12 11:42:53;;;;;;;17.02;9.35;;;;;;;0.81;85.92;94812.03;4940864;29;20040;-89
2021/12/12 11:45:38;;;;;;;19.13;10.65;;;;;;;1.03;86.30;94789.63;4940035;28;20042;-90
2021/12/12 11:48:27;;;;;;;13.50;7.28;;;;;;;1.09;85.13;94796.56;4945678;29;20044;-88
2021/12/12 11:51:02;;;;;;;11.95;6.95;;;;;;;0.62;83.84;94737.41;4952392;29;20123;-90
2021/12/12 11:53:41;;;;;;;15.93;8.65;;;;;;;0.89;84.62;94787.44;4937082;29;20061;-89
2021/12/12 11:56:20;;;;;;;18.48;10.82;;;;;;;0.11;84.76;94690.94;4920545;29;20055;-89
2021/12/12 11:59:11;;;;;;;21.88;13.55;;;;;;;-2.25;85.24;94315.31;4936821;29;20122;-88
2021/12/12 12:01:49;;;;;;;21.17;12.40;;;;;;;0.99;85.47;94772.78;4928623;29;20055;-90
2021/12/12 12:04:27;;;;;;;17.77;10.43;;;;;;;1.12;83.52;94803.97;4937513;29;20168;-90
2021/12/12 12:07:03;;;;;;;18.88;11.63;;;;;;;1.19;84.65;94795.22;4954601;29;20667;-89
2021/12/12 12:10:04;;;;;;;21.33;11.75;;;;;;;0.86;83.57;94764.38;4937810;29;20095;-89
2021/12/12 12:12:50;;;;;;;16.17;10.13;;;;;;;1.36;83.62;94798.78;4937956;29;20051;-91
2021/12/12 12:15:52;;;;;;;13.02;8.20;;;;;;;1.15;82.91;94806.09;4937564;29;20054;-89
2021/12/12 12:18:42;;;;;;;13.90;7.68;;;;;;;1.06;83.92;94811.91;4934386;29;20438;-89
2021/12/12 12:21:37;;;;;;;14.57;7.97;;;;;;;1.13;84.21;94815.22;4954436;29;20554;-89
2021/12/12 12:24:38;;;;;;;14.00;9.27;;;;;;;1.08;84.32;94823.69;4931611;29;20055;-90
2021/12/12 12:27:10;;;;;;;16.58;10.43;;;;;;;-1.97;83.49;94370.97;4946331;28;20058;-89